Amesbury, MA

11:32 AM EST on December 25, 2014 (GMT -0500)
Manchester | Change Station
CLOSE
Current Station
Airport
Location: Manchester,
Elevation: 233 ft
Nearby Weather Stations

Elev 233 ft 42.93 °N, 71.44 °W | Updated 39 minutes ago

Overcast
Overcast
48 °F
Feels Like 48 °F
N
10
Wind Variable Wind from WSW
Gusts 20 mph

Today
High -- | Low -- °F
--% Chance of Precip.
Yesterday
High -- | Low -- °F
Precip. -- in
7:13 AM 4:14 PM
Waxing Crescent, 17% visible
Pressure 29.59 in
Visibility 10.0 miles
Clouds Scattered Clouds 7000 ft
Mostly Cloudy 20000 ft
Dew Point 39 °F
Humidity 71%
Rainfall 0.04 in
Snow Depth Not available.
UV 1 out of 12
Pollen .10 out of 12
Air Quality Not available.
Flu Activity Not available.
METAR KMHT 251553Z 25009G17KT 10SM SCT070 BKN200 09/04 A2954 RMK AO2 SLP018 T00890039

More Conditions Fewer Conditions

Pressure 29.59 in
Visibility 10.0 miles
Clouds Scattered Clouds 7000 ft
Mostly Cloudy 20000 ft
Dew Point 39 °F
Humidity 71%
Rainfall 0.04 in
Snow Depth Not available.
UV 1 out of 12
Pollen .10 out of 12
Air Quality Not available.
Flu Activity Not available.
METAR KMHT 251553Z 25009G17KT 10SM SCT070 BKN200 09/04 A2954 RMK AO2 SLP018 T00890039

More Conditions Fewer Conditions

10-Day Weather Forecast

Almanac

Astronomy

Dec. 25, 2014 Rise Set
Actual Time
Civil Twilight
Nautical Twilight
Astronomical Twilight
Moon
Length of Visible Light
Length of Day
Tomorrow will be .
, % of the Moon is Illuminated

Today's Extremes

State Highs State Lows

Community

WunderPhotos

Upload Photos

1,780,336 photos uploaded!

WunderBlogs® & News

Nearby

Air Quality

  Air Quality AQ Index Pollutant
Not available.

Snow Depth

Station Depth Elevation

Earthquake Activity

City Distance Mag. Time & Date
Minimum magnitude displayed is 2.5.

Coastal Water Temperatures

Place Temperature

Nearby Weather Stations